createdAt,value
2023-04-18T00:00:28.581Z,3.95
2023-04-18T00:02:55.523Z,3.45
2023-04-18T00:05:22.729Z,3.42
2023-04-18T00:07:49.677Z,3.03
2023-04-18T00:10:16.897Z,3.28
2023-04-18T00:12:43.560Z,3.20
2023-04-18T00:15:10.687Z,4.55
2023-04-18T00:17:37.444Z,3.93
2023-04-18T00:20:05.732Z,4.57
2023-04-18T00:22:32.507Z,3.30
2023-04-18T00:24:59.878Z,4.10
2023-04-18T00:27:26.501Z,3.72
2023-04-18T00:29:53.153Z,3.55
2023-04-18T00:32:19.839Z,3.67
2023-04-18T00:34:46.633Z,3.42
2023-04-18T00:37:13.323Z,3.03
2023-04-18T00:39:41.940Z,3.35
2023-04-18T00:42:08.800Z,3.47
2023-04-18T00:44:35.492Z,3.47
2023-04-18T00:47:02.121Z,3.25
2023-04-18T00:49:28.947Z,3.05
2023-04-18T00:51:56.597Z,3.88
2023-04-18T00:54:24.609Z,3.67
2023-04-18T00:56:51.633Z,3.20
2023-04-18T00:59:18.866Z,3.60
2023-04-18T01:01:45.751Z,4.35
2023-04-18T01:04:12.676Z,3.65
2023-04-18T01:09:07.181Z,3.03
2023-04-18T01:11:33.833Z,3.40
2023-04-18T01:14:05.821Z,3.53
2023-04-18T01:16:35.483Z,4.65
2023-04-18T01:19:03.358Z,3.75
2023-04-18T01:21:31.157Z,3.97
2023-04-18T01:24:07.818Z,4.00
2023-04-18T01:26:34.450Z,4.00
2023-04-18T01:29:04.780Z,3.60
2023-04-18T01:31:34.683Z,5.70
2023-04-18T01:34:01.357Z,4.28
2023-04-18T01:36:28.037Z,4.20
2023-04-18T01:38:54.989Z,4.03
2023-04-18T01:41:22.426Z,4.15
2023-04-18T01:43:49.071Z,4.38
2023-04-18T01:46:15.905Z,4.38
2023-04-18T01:48:42.961Z,4.03
2023-04-18T01:51:09.696Z,3.65
2023-04-18T01:53:38.159Z,3.85
2023-04-18T01:56:05.073Z,5.05
2023-04-18T01:58:31.777Z,4.32
2023-04-18T02:00:58.857Z,5.15
2023-04-18T02:03:25.746Z,4.28
2023-04-18T02:05:52.952Z,4.63
2023-04-18T02:08:19.733Z,4.43
2023-04-18T02:10:46.402Z,4.63
2023-04-18T02:13:12.980Z,5.47
2023-04-18T02:15:39.673Z,4.65
2023-04-18T02:18:06.484Z,4.57
2023-04-18T02:20:33.121Z,5.38
2023-04-18T02:23:03.191Z,6.13
2023-04-18T02:25:30.381Z,6.28
2023-04-18T02:27:57.747Z,6.38
2023-04-18T02:30:25.568Z,6.53
2023-04-18T02:32:53.170Z,5.45
2023-04-18T02:35:24.322Z,4.85
2023-04-18T02:37:51.201Z,4.65
2023-04-18T02:40:18.674Z,6.93
2023-04-18T02:42:45.697Z,5.78
2023-04-18T02:45:14.793Z,5.85
2023-04-18T02:47:53.838Z,5.70
2023-04-18T02:50:21.897Z,5.45
2023-04-18T02:52:49.052Z,5.72
2023-04-18T02:55:18.026Z,6.03
2023-04-18T02:57:45.460Z,4.95
2023-04-18T03:00:53.308Z,7.28
2023-04-18T03:03:43.024Z,5.18
2023-04-18T03:06:41.857Z,6.85
2023-04-18T03:09:08.916Z,7.03
2023-04-18T03:11:39.724Z,6.45
2023-04-18T03:14:06.896Z,4.95
2023-04-18T03:16:41.566Z,6.70
2023-04-18T03:19:11.671Z,6.75
2023-04-18T03:21:38.425Z,6.50
2023-04-18T03:24:05.785Z,5.18
2023-04-18T03:26:34.004Z,6.30
2023-04-18T03:29:01.841Z,6.45
2023-04-18T03:31:29.007Z,6.10
2023-04-18T03:33:55.691Z,6.05
2023-04-18T03:36:22.434Z,5.75
2023-04-18T03:38:49.059Z,6.97
2023-04-18T03:41:15.743Z,7.97
2023-04-18T03:43:42.377Z,7.80
2023-04-18T03:46:09.015Z,6.72
2023-04-18T03:48:36.620Z,7.57
2023-04-18T03:51:07.743Z,6.70
2023-04-18T03:53:35.462Z,8.13
2023-04-18T03:56:02.182Z,7.05
2023-04-18T03:58:44.512Z,7.20
2023-04-18T04:01:11.408Z,6.55
2023-04-18T04:03:38.819Z,6.83
2023-04-18T04:06:06.388Z,7.47
2023-04-18T04:08:34.007Z,7.60
2023-04-18T04:11:01.006Z,7.65
2023-04-18T04:13:28.099Z,7.03
2023-04-18T04:15:55.014Z,8.10
2023-04-18T04:18:21.740Z,7.22
2023-04-18T04:20:48.365Z,7.40
2023-04-18T04:23:28.284Z,7.40
2023-04-18T04:25:55.582Z,8.05
2023-04-18T04:28:35.907Z,8.15
2023-04-18T04:31:04.771Z,7.95
2023-04-18T04:33:31.545Z,8.07
2023-04-18T04:36:00.743Z,8.38
2023-04-18T04:38:29.352Z,6.70
2023-04-18T04:40:56.259Z,6.03
2023-04-18T04:43:23.238Z,6.97
2023-04-18T04:45:50.792Z,7.18
2023-04-18T04:48:22.093Z,6.78
2023-04-18T04:50:54.331Z,8.35
2023-04-18T04:53:21.564Z,6.75
2023-04-18T04:55:49.197Z,5.80
2023-04-18T04:58:17.434Z,5.80
2023-04-18T05:01:02.654Z,5.78
2023-04-18T05:03:31.603Z,7.60
2023-04-18T05:05:58.429Z,6.47
2023-04-18T05:08:25.232Z,6.50
2023-04-18T05:10:51.955Z,7.43
2023-04-18T05:13:18.591Z,7.30
2023-04-18T05:15:45.330Z,16.30
2023-04-18T05:18:11.993Z,9.38
2023-04-18T05:20:38.649Z,8.10
2023-04-18T05:23:05.301Z,7.38
2023-04-18T05:25:32.058Z,6.70
2023-04-18T05:28:00.490Z,6.53
2023-04-18T05:30:27.082Z,7.53
2023-04-18T05:32:53.812Z,7.50
2023-04-18T05:35:20.523Z,7.18
2023-04-18T05:37:47.166Z,6.22
2023-04-18T05:40:14.110Z,7.57
2023-04-18T05:42:40.757Z,7.40
2023-04-18T05:45:07.962Z,7.63
2023-04-18T05:47:34.657Z,13.47
2023-04-18T05:50:01.332Z,8.20
2023-04-18T05:52:27.924Z,8.10
2023-04-18T05:54:54.652Z,7.22
2023-04-18T05:57:21.207Z,7.85
2023-04-18T05:59:47.910Z,8.23
2023-04-18T06:02:14.969Z,7.40
2023-04-18T06:04:42.883Z,8.15
2023-04-18T06:07:10.197Z,6.30
2023-04-18T06:09:36.933Z,7.47
2023-04-18T06:12:04.010Z,10.68
2023-04-18T06:14:30.824Z,9.35
2023-04-18T06:16:57.567Z,9.50
2023-04-18T06:19:24.206Z,9.70
2023-04-18T06:21:52.206Z,8.88
2023-04-18T06:24:18.823Z,8.05
2023-04-18T06:26:45.410Z,10.85
2023-04-18T06:29:12.172Z,10.57
2023-04-18T06:31:38.845Z,10.57
2023-04-18T06:34:06.332Z,7.93
2023-04-18T06:36:35.463Z,8.80
2023-04-18T06:39:02.147Z,9.43
2023-04-18T06:41:28.722Z,8.30
2023-04-18T06:44:03.578Z,9.68
2023-04-18T06:46:31.714Z,8.48
2023-04-18T06:48:58.626Z,6.67
2023-04-18T06:51:25.254Z,9.23
2023-04-18T06:53:51.827Z,8.15
2023-04-18T06:56:21.632Z,7.97
2023-04-18T06:58:48.656Z,7.88
2023-04-18T07:01:15.416Z,9.18
2023-04-18T07:03:42.134Z,7.15
2023-04-18T07:06:08.894Z,7.03
2023-04-18T07:08:36.047Z,8.70
2023-04-18T07:11:02.655Z,8.05
2023-04-18T07:13:29.321Z,7.38
2023-04-18T07:15:56.108Z,8.75
2023-04-18T07:18:34.162Z,10.23
2023-04-18T07:21:03.900Z,8.85
2023-04-18T07:23:30.510Z,9.32
2023-04-18T07:25:57.081Z,7.75
2023-04-18T07:28:23.757Z,9.20
2023-04-18T07:30:50.494Z,7.55
2023-04-18T07:33:17.158Z,8.43
2023-04-18T07:35:43.795Z,7.95
2023-04-18T07:38:10.366Z,7.25
2023-04-18T07:40:36.923Z,6.55
2023-04-18T07:43:03.649Z,7.90
2023-04-18T07:45:31.046Z,8.07
2023-04-18T07:47:57.780Z,7.13
2023-04-18T07:50:24.575Z,7.68
2023-04-18T07:52:51.187Z,7.80
2023-04-18T07:55:17.876Z,7.43
2023-04-18T07:57:45.949Z,7.70
2023-04-18T08:00:14.469Z,8.32
2023-04-18T08:02:41.456Z,7.97
2023-04-18T08:05:09.039Z,7.60
2023-04-18T08:07:36.320Z,7.53
2023-04-18T08:10:03.679Z,6.93
2023-04-18T08:12:30.547Z,7.63
2023-04-18T08:14:57.114Z,8.77
2023-04-18T08:17:24.036Z,6.45
2023-04-18T08:19:50.928Z,6.75
2023-04-18T08:22:17.484Z,6.53
2023-04-18T08:25:01.008Z,7.35
2023-04-18T08:27:30.317Z,6.03
2023-04-18T08:29:56.951Z,9.57
2023-04-18T08:32:23.818Z,7.28
2023-04-18T08:34:50.424Z,7.25
2023-04-18T08:37:17.404Z,7.32
2023-04-18T08:39:44.153Z,6.60
2023-04-18T08:42:10.996Z,7.70
2023-04-18T08:44:37.690Z,7.80
2023-04-18T08:47:04.517Z,7.00
2023-04-18T08:49:31.263Z,6.78
2023-04-18T08:51:59.977Z,6.25
2023-04-18T08:54:27.511Z,7.63
2023-04-18T08:57:07.213Z,6.45
2023-04-18T08:59:33.907Z,7.80
2023-04-18T09:02:00.527Z,7.13
2023-04-18T09:04:39.145Z,9.00
2023-04-18T09:07:09.253Z,8.15
2023-04-18T09:09:47.891Z,8.20
2023-04-18T09:12:19.320Z,7.40
2023-04-18T09:14:46.648Z,6.43
2023-04-18T09:17:15.653Z,6.07
2023-04-18T09:19:49.296Z,8.35
2023-04-18T09:22:17.155Z,7.60
2023-04-18T09:24:53.123Z,7.25
2023-04-18T09:27:20.032Z,7.53
2023-04-18T09:29:48.393Z,7.72
2023-04-18T09:32:29.287Z,7.07
2023-04-18T09:35:03.415Z,7.10
2023-04-18T09:37:31.355Z,7.13
2023-04-18T09:39:58.044Z,7.13
2023-04-18T09:42:28.205Z,7.88
2023-04-18T09:45:07.051Z,7.90
2023-04-18T09:47:35.634Z,6.82
2023-04-18T09:50:07.562Z,8.65
2023-04-18T09:52:36.213Z,8.93
2023-04-18T09:55:05.623Z,6.93
2023-04-18T09:57:33.872Z,7.78
2023-04-18T10:02:39.140Z,7.53
2023-04-18T10:05:06.687Z,6.85
2023-04-18T10:07:33.456Z,5.78
2023-04-18T10:10:00.140Z,6.22
2023-04-18T10:12:27.036Z,6.65
2023-04-18T10:14:54.591Z,7.10
2023-04-18T10:17:21.350Z,5.55
2023-04-18T10:20:03.908Z,5.50
2023-04-18T10:22:30.617Z,5.60
2023-04-18T10:24:57.199Z,5.78
2023-04-18T10:27:48.983Z,7.00
2023-04-18T10:30:16.717Z,7.32
2023-04-18T10:32:43.586Z,6.90
2023-04-18T10:35:11.363Z,5.82
2023-04-18T10:37:59.884Z,6.40
2023-04-18T10:40:34.153Z,6.15
2023-04-18T10:43:01.565Z,5.22
2023-04-18T10:45:32.904Z,4.93
2023-04-18T10:48:28.105Z,5.97
2023-04-18T10:51:14.553Z,6.90
2023-04-18T10:53:49.097Z,6.10
2023-04-18T10:56:15.931Z,5.93
2023-04-18T10:58:49.354Z,6.20
2023-04-18T11:01:24.719Z,5.10
2023-04-18T11:03:51.697Z,5.68
2023-04-18T11:06:18.427Z,5.03
2023-04-18T11:08:45.349Z,5.13
2023-04-18T11:11:13.704Z,4.90
2023-04-18T11:13:59.647Z,4.25
2023-04-18T11:16:31.887Z,6.38
2023-04-18T11:18:58.587Z,6.72
2023-04-18T11:21:30.642Z,8.20
2023-04-18T11:23:58.397Z,5.78
2023-04-18T11:26:26.346Z,4.30
2023-04-18T11:28:59.187Z,5.72
2023-04-18T11:31:26.058Z,5.10
2023-04-18T11:33:52.720Z,5.88
2023-04-18T11:36:19.603Z,5.57
2023-04-18T11:38:46.392Z,5.47
2023-04-18T11:41:16.073Z,4.18
2023-04-18T11:43:44.588Z,5.18
2023-04-18T11:46:12.519Z,4.38
2023-04-18T11:48:41.795Z,3.95
2023-04-18T11:51:29.732Z,4.72
2023-04-18T11:53:56.444Z,5.07
2023-04-18T11:56:23.091Z,5.22
2023-04-18T11:58:49.826Z,5.50
2023-04-18T12:01:21.596Z,4.93
2023-04-18T12:04:05.660Z,5.10
2023-04-18T12:06:49.354Z,4.95
2023-04-18T12:09:17.265Z,5.03
2023-04-18T12:11:44.338Z,4.88
2023-04-18T12:14:21.124Z,5.53
2023-04-18T12:16:51.743Z,3.97
2023-04-18T12:19:18.862Z,3.83
2023-04-18T12:22:00.278Z,4.53
2023-04-18T12:24:27.959Z,4.72
2023-04-18T12:26:55.573Z,5.03
2023-04-18T12:29:22.235Z,4.22
2023-04-18T12:31:48.954Z,4.57
2023-04-18T12:34:15.951Z,4.97
2023-04-18T12:36:42.997Z,3.85
2023-04-18T12:39:09.654Z,4.13
2023-04-18T12:41:36.510Z,6.32
2023-04-18T12:44:03.725Z,7.53
2023-04-18T12:46:30.753Z,5.43
2023-04-18T12:48:57.500Z,4.03
2023-04-18T12:51:25.455Z,5.60
2023-04-18T12:53:52.219Z,4.90
2023-04-18T12:56:18.832Z,4.88
2023-04-18T12:58:45.524Z,4.70
2023-04-18T13:01:12.436Z,5.03
2023-04-18T13:03:39.252Z,5.20
2023-04-18T13:06:06.155Z,4.85
2023-04-18T13:08:32.823Z,4.57
2023-04-18T13:10:59.676Z,5.68
2023-04-18T13:13:26.399Z,5.95
2023-04-18T13:15:53.246Z,4.88
2023-04-18T13:18:22.840Z,6.05
2023-04-18T13:20:49.633Z,4.57
2023-04-18T13:23:16.231Z,4.80
2023-04-18T13:25:43.003Z,4.35
2023-04-18T13:28:09.668Z,4.82
2023-04-18T13:30:36.408Z,4.75
2023-04-18T13:33:03.158Z,5.80
2023-04-18T13:35:30.176Z,5.88
2023-04-18T13:37:56.829Z,4.68
2023-04-18T13:40:23.492Z,4.95
2023-04-18T13:42:50.156Z,4.78
2023-04-18T13:45:16.760Z,3.40
2023-04-18T13:47:43.433Z,4.20
2023-04-18T13:50:10.410Z,4.50
2023-04-18T13:52:37.063Z,4.32
2023-04-18T13:55:03.993Z,4.22
2023-04-18T13:57:30.825Z,3.78
2023-04-18T13:59:57.708Z,4.75
2023-04-18T14:02:24.425Z,4.57
2023-04-18T14:04:51.321Z,4.55
2023-04-18T14:07:18.063Z,4.80
2023-04-18T14:09:44.807Z,4.32
2023-04-18T14:12:11.418Z,3.80
2023-04-18T14:14:38.150Z,4.13
2023-04-18T14:17:05.073Z,4.10
2023-04-18T14:19:31.673Z,5.57
2023-04-18T14:21:58.226Z,4.85
2023-04-18T14:24:24.875Z,3.80
2023-04-18T14:26:51.430Z,4.10
2023-04-18T14:29:18.067Z,5.28
2023-04-18T14:31:44.905Z,4.22
2023-04-18T14:34:11.709Z,3.58
2023-04-18T14:36:38.396Z,3.90
2023-04-18T14:39:04.989Z,3.35
2023-04-18T14:41:31.841Z,4.45
2023-04-18T14:43:58.479Z,3.60
2023-04-18T14:46:25.175Z,4.07
2023-04-18T14:48:51.827Z,3.55
2023-04-18T14:51:18.422Z,3.13
2023-04-18T14:53:45.222Z,4.35
2023-04-18T14:56:12.201Z,3.50
2023-04-18T14:58:38.805Z,3.90
2023-04-18T15:01:05.612Z,4.25
2023-04-18T15:03:32.505Z,4.88
2023-04-18T15:05:59.514Z,3.85
2023-04-18T15:08:26.177Z,4.28
2023-04-18T15:10:52.876Z,4.60
2023-04-18T15:13:20.935Z,3.30
2023-04-18T15:15:52.233Z,3.35
2023-04-18T15:18:18.991Z,3.22
2023-04-18T15:20:45.703Z,2.92
2023-04-18T15:23:12.298Z,3.60
2023-04-18T15:25:39.059Z,4.78
2023-04-18T15:28:05.791Z,2.97
2023-04-18T15:30:32.908Z,3.17
2023-04-18T15:32:59.491Z,2.88
2023-04-18T15:35:26.273Z,2.75
2023-04-18T15:37:52.884Z,3.33
2023-04-18T15:40:19.671Z,2.97
2023-04-18T15:42:46.345Z,4.07
2023-04-18T15:45:12.920Z,7.60
2023-04-18T15:47:39.621Z,4.57
2023-04-18T15:50:07.017Z,3.75
2023-04-18T15:52:33.865Z,3.20
2023-04-18T15:55:00.657Z,2.80
2023-04-18T15:57:27.392Z,3.42
2023-04-18T15:59:54.096Z,3.33
2023-04-18T16:02:20.760Z,2.38
2023-04-18T16:04:47.567Z,2.53
2023-04-18T16:07:14.199Z,3.67
2023-04-18T16:09:40.803Z,2.95
2023-04-18T16:12:07.538Z,4.20
2023-04-18T16:14:34.214Z,3.85
2023-04-18T16:17:00.775Z,3.50
2023-04-18T16:19:27.476Z,4.38
2023-04-18T16:21:54.116Z,3.42
2023-04-18T16:24:20.744Z,2.75
2023-04-18T16:26:47.383Z,3.70
2023-04-18T16:29:13.949Z,3.20
2023-04-18T16:31:40.651Z,3.42
2023-04-18T16:34:07.374Z,3.15
2023-04-18T16:36:34.198Z,3.80
2023-04-18T16:39:00.867Z,4.03
2023-04-18T16:41:27.598Z,3.35
2023-04-18T16:43:54.160Z,3.22
2023-04-18T16:46:23.932Z,3.33
2023-04-18T16:48:52.285Z,3.08
2023-04-18T16:51:19.158Z,3.50
2023-04-18T16:53:45.776Z,3.42
2023-04-18T16:56:12.420Z,3.60
2023-04-18T16:58:39.142Z,3.53
2023-04-18T17:01:05.719Z,2.83
2023-04-18T17:03:32.634Z,2.38
2023-04-18T17:05:59.371Z,3.25
2023-04-18T17:08:25.946Z,3.15
2023-04-18T17:10:52.808Z,2.72
2023-04-18T17:13:19.575Z,3.13
2023-04-18T17:15:46.298Z,3.10
2023-04-18T17:18:12.892Z,2.63
2023-04-18T17:20:39.540Z,2.40
2023-04-18T17:23:06.129Z,2.83
2023-04-18T17:25:32.911Z,2.83
2023-04-18T17:27:59.500Z,3.25
2023-04-18T17:30:28.978Z,2.97
2023-04-18T17:32:55.670Z,3.65
2023-04-18T17:35:22.544Z,3.95
2023-04-18T17:37:49.762Z,2.22
2023-04-18T17:40:16.388Z,3.33
2023-04-18T17:42:43.088Z,2.80
2023-04-18T17:45:10.428Z,2.78
2023-04-18T17:47:37.110Z,2.63
2023-04-18T17:50:04.521Z,3.20
2023-04-18T17:52:31.290Z,3.63
2023-04-18T17:54:59.229Z,2.40
2023-04-18T17:57:26.220Z,3.63
2023-04-18T17:59:53.310Z,2.97
2023-04-18T18:02:20.182Z,2.28
2023-04-18T18:04:46.835Z,3.17
2023-04-18T18:07:13.394Z,2.33
2023-04-18T18:09:40.001Z,2.50
2023-04-18T18:12:06.791Z,2.53
2023-04-18T18:14:33.357Z,2.72
2023-04-18T18:16:59.956Z,3.85
2023-04-18T18:19:26.800Z,3.00
2023-04-18T18:21:53.366Z,2.28
2023-04-18T18:24:19.984Z,2.85
2023-04-18T18:26:48.546Z,3.67
2023-04-18T18:29:16.490Z,2.80
2023-04-18T18:31:43.412Z,2.60
2023-04-18T18:34:10.065Z,3.10
2023-04-18T18:36:36.927Z,2.03
2023-04-18T18:39:03.723Z,3.83
2023-04-18T18:41:30.316Z,3.47
2023-04-18T18:43:56.951Z,2.47
2023-04-18T18:46:23.542Z,2.72
2023-04-18T18:48:50.188Z,2.92
2023-04-18T18:51:18.775Z,2.88
2023-04-18T18:53:46.566Z,2.92
2023-04-18T18:56:13.272Z,3.25
2023-04-18T18:58:39.940Z,2.45
2023-04-18T19:01:06.886Z,3.25
2023-04-18T19:03:33.628Z,3.80
2023-04-18T19:06:00.405Z,3.33
2023-04-18T19:08:27.041Z,3.05
2023-04-18T19:10:53.594Z,3.40
2023-04-18T19:13:21.708Z,2.83
2023-04-18T19:18:15.320Z,2.70
2023-04-18T19:20:42.096Z,3.85
2023-04-18T19:23:08.779Z,3.67
2023-04-18T19:25:35.346Z,3.00
2023-04-18T19:28:02.015Z,2.80
2023-04-18T19:30:28.748Z,2.92
2023-04-18T19:32:55.345Z,2.72
2023-04-18T19:35:22.067Z,2.67
2023-04-18T19:37:48.720Z,2.80
2023-04-18T19:40:15.431Z,3.22
2023-04-18T19:42:42.039Z,3.15
2023-04-18T19:45:09.137Z,3.13
2023-04-18T19:47:35.773Z,3.35
2023-04-18T19:50:03.676Z,2.97
2023-04-18T19:52:30.551Z,3.63
2023-04-18T19:54:57.192Z,3.13
2023-04-18T19:57:23.824Z,2.90
2023-04-18T19:59:50.479Z,3.47
2023-04-18T20:02:17.081Z,3.58
2023-04-18T20:04:43.913Z,2.67
2023-04-18T20:07:10.746Z,2.63
2023-04-18T20:09:37.489Z,2.78
2023-04-18T20:12:04.136Z,2.88
2023-04-18T20:14:32.325Z,2.08
2023-04-18T20:16:58.975Z,2.30
2023-04-18T20:19:25.686Z,2.35
2023-04-18T20:21:52.657Z,1.90
2023-04-18T20:24:19.489Z,2.42
2023-04-18T20:26:46.080Z,2.20
2023-04-18T20:29:13.016Z,2.88
2023-04-18T20:31:39.964Z,2.30
2023-04-18T20:34:06.733Z,1.92
2023-04-18T20:36:33.307Z,1.88
2023-04-18T20:38:59.954Z,1.90
2023-04-18T20:41:26.624Z,1.65
2023-04-18T20:43:53.411Z,2.30
2023-04-18T20:46:20.034Z,2.03
2023-04-18T20:48:46.734Z,1.80
2023-04-18T20:51:13.345Z,1.95
2023-04-18T20:53:40.059Z,1.77
2023-04-18T20:56:06.854Z,1.75
2023-04-18T20:58:33.516Z,1.95
2023-04-18T21:01:00.192Z,2.03
2023-04-18T21:03:26.864Z,1.83
2023-04-18T21:05:53.704Z,1.55
2023-04-18T21:08:20.268Z,2.47
2023-04-18T21:10:47.010Z,3.10
2023-04-18T21:13:13.557Z,2.00
2023-04-18T21:15:41.475Z,2.22
2023-04-18T21:18:08.235Z,2.40
2023-04-18T21:20:34.835Z,2.10
2023-04-18T21:23:01.490Z,2.58
2023-04-18T21:25:28.306Z,2.25
2023-04-18T21:27:54.877Z,1.98
2023-04-18T21:30:21.613Z,1.55
2023-04-18T21:32:48.195Z,2.50
2023-04-18T21:35:16.073Z,2.13
2023-04-18T21:37:43.973Z,2.40
2023-04-18T21:40:10.828Z,2.00
2023-04-18T21:42:37.442Z,2.67
2023-04-18T21:45:05.844Z,2.60
2023-04-18T21:47:32.763Z,2.65
2023-04-18T21:49:59.790Z,2.42
2023-04-18T21:52:26.480Z,3.88
2023-04-18T21:54:53.130Z,3.05
2023-04-18T21:57:19.801Z,3.00
2023-04-18T21:59:46.357Z,3.30
2023-04-18T22:02:12.955Z,3.25
2023-04-18T22:04:39.628Z,3.47
2023-04-18T22:07:06.256Z,2.95
2023-04-18T22:09:35.332Z,3.35
2023-04-18T22:12:02.008Z,3.13
2023-04-18T22:14:28.583Z,3.60
2023-04-18T22:16:55.184Z,3.40
2023-04-18T22:19:21.937Z,4.35
2023-04-18T22:21:48.692Z,4.15
2023-04-18T22:24:15.506Z,4.95
2023-04-18T22:26:42.379Z,5.95
2023-04-18T22:29:08.936Z,4.60
2023-04-18T22:31:35.475Z,3.90
2023-04-18T22:34:02.101Z,4.68
2023-04-18T22:36:29.000Z,4.45
2023-04-18T22:38:55.575Z,5.50
2023-04-18T22:41:22.196Z,4.30
2023-04-18T22:43:49.143Z,4.82
2023-04-18T22:46:15.774Z,4.80
2023-04-18T22:48:42.320Z,3.97
2023-04-18T22:51:09.159Z,5.60
2023-04-18T22:53:35.876Z,4.53
2023-04-18T22:56:02.460Z,3.78
2023-04-18T22:58:29.073Z,3.70
2023-04-18T23:00:55.811Z,4.30
2023-04-18T23:03:22.645Z,5.35
2023-04-18T23:05:49.408Z,4.78
2023-04-18T23:08:16.094Z,4.13
2023-04-18T23:10:42.682Z,4.97
2023-04-18T23:13:09.321Z,4.30
2023-04-18T23:15:35.995Z,4.30
2023-04-18T23:18:02.729Z,3.95
2023-04-18T23:20:29.475Z,4.72
2023-04-18T23:22:56.135Z,4.40
2023-04-18T23:25:22.919Z,4.65
2023-04-18T23:27:49.490Z,4.72
2023-04-18T23:30:16.144Z,5.60
2023-04-18T23:32:42.830Z,5.88
2023-04-18T23:35:11.221Z,4.97
2023-04-18T23:37:37.820Z,4.28
2023-04-18T23:40:04.843Z,5.13
2023-04-18T23:42:31.426Z,5.70
2023-04-18T23:44:58.116Z,4.50
2023-04-18T23:47:24.694Z,5.45
2023-04-18T23:49:51.366Z,5.15
2023-04-18T23:52:17.955Z,5.32
2023-04-18T23:54:45.499Z,5.28
2023-04-18T23:57:12.280Z,5.53
2023-04-18T23:59:39.033Z,5.07
